Terminal Aerodrome Forecast
Issued by NWS Atlanta, GA

Home | Current Version | Previous Version | Text Only | Print | Product List | Glossary On
Versions: 1 2 3 4 5 6 7 8 9 10 11 12 13 14 15 16 17 18 19 20 21 22 23 24 25 26 27 28 29 30
000
FTUS42 KFFC 272218 AAA
TAFAHN
TAF AMD
KAHN 272218Z 2722/2818 06007KT P6SM FEW050
     FM280600 06005KT P6SM SCT015
     FM280900 06005KT P6SM BKN009
     FM281400 08008KT P6SM BKN020
     FM281700 10010KT P6SM BKN035=

USA.gov is the U.S. government's official web portal to all federal, state and local government web resources and services.